sensor_id;sensor_type;location;lat;lon;timestamp;pressure;altitude;pressure_sealevel;temperature;humidity
37132;BME280;23035;50.032;21.978;2024-01-27T00:00:34;65331.88;;;1.62;100.00
37132;BME280;23035;50.032;21.978;2024-01-27T00:06:00;65348.69;;;1.73;100.00
37132;BME280;23035;50.032;21.978;2024-01-27T00:11:06;65293.78;;;1.19;100.00
37132;BME280;23035;50.032;21.978;2024-01-27T00:16:11;65390.75;;;2.14;100.00
37132;BME280;23035;50.032;21.978;2024-01-27T00:21:17;65343.91;;;1.69;100.00
37132;BME280;23035;50.032;21.978;2024-01-27T00:26:22;65362.22;;;1.91;100.00
37132;BME280;23035;50.032;21.978;2024-01-27T00:31:42;65412.94;;;2.30;100.00
37132;BME280;23035;50.032;21.978;2024-01-27T00:36:48;65434.44;;;2.55;100.00
37132;BME280;23035;50.032;21.978;2024-01-27T00:41:52;65509.38;;;3.22;100.00
37132;BME280;23035;50.032;21.978;2024-01-27T00:46:58;65512.69;;;3.28;100.00
37132;BME280;23035;50.032;21.978;2024-01-27T00:52:05;65553.22;;;3.66;100.00
37132;BME280;23035;50.032;21.978;2024-01-27T00:57:09;65457.34;;;2.77;100.00
37132;BME280;23035;50.032;21.978;2024-01-27T01:02:14;65529.72;;;3.44;100.00
37132;BME280;23035;50.032;21.978;2024-01-27T01:07:20;65496.06;;;3.09;100.00
37132;BME280;23035;50.032;21.978;2024-01-27T01:12:24;65509.50;;;3.25;100.00
37132;BME280;23035;50.032;21.978;2024-01-27T01:17:29;65525.47;;;3.40;100.00
37132;BME280;23035;50.032;21.978;2024-01-27T01:22:35;65536.13;;;3.50;100.00
37132;BME280;23035;50.032;21.978;2024-01-27T01:27:39;65474.41;;;2.94;100.00
37132;BME280;23035;50.032;21.978;2024-01-27T01:32:44;65499.91;;;3.15;100.00
37132;BME280;23035;50.032;21.978;2024-01-27T01:37:50;65542.09;;;3.58;100.00
37132;BME280;23035;50.032;21.978;2024-01-27T01:42:54;65517.59;;;3.35;100.00
37132;BME280;23035;50.032;21.978;2024-01-27T01:47:59;65531.44;;;3.48;100.00
37132;BME280;23035;50.032;21.978;2024-01-27T01:53:05;65530.91;;;3.48;100.00
37132;BME280;23035;50.032;21.978;2024-01-27T01:58:11;65521.84;;;3.39;100.00
37132;BME280;23035;50.032;21.978;2024-01-27T02:03:15;65537.63;;;3.49;100.00
37132;BME280;23035;50.032;21.978;2024-01-27T02:08:21;65539.44;;;3.56;100.00
37132;BME280;23035;50.032;21.978;2024-01-27T02:13:26;65497.31;;;3.15;100.00
37132;BME280;23035;50.032;21.978;2024-01-27T02:18:30;65510.75;;;3.31;100.00
37132;BME280;23035;50.032;21.978;2024-01-27T02:23:36;65559.72;;;3.75;100.00
37132;BME280;23035;50.032;21.978;2024-01-27T02:28:42;65540.94;;;3.55;100.00
37132;BME280;23035;50.032;21.978;2024-01-27T02:33:46;65511.19;;;3.29;100.00
37132;BME280;23035;50.032;21.978;2024-01-27T02:38:50;65496.59;;;3.10;100.00
37132;BME280;23035;50.032;21.978;2024-01-27T02:43:56;65476.44;;;2.93;100.00
37132;BME280;23035;50.032;21.978;2024-01-27T02:49:01;65510.22;;;3.30;100.00
37132;BME280;23035;50.032;21.978;2024-01-27T02:54:05;65512.25;;;3.30;100.00
37132;BME280;23035;50.032;21.978;2024-01-27T02:59:11;65515.44;;;3.33;100.00
37132;BME280;23035;50.032;21.978;2024-01-27T03:04:16;65505.84;;;3.24;100.00
37132;BME280;23035;50.032;21.978;2024-01-27T03:09:20;65470.66;;;2.90;100.00
37132;BME280;23035;50.032;21.978;2024-01-27T03:14:26;65493.59;;;3.12;100.00
37132;BME280;23035;50.032;21.978;2024-01-27T03:19:30;65467.03;;;2.89;100.00
37132;BME280;23035;50.032;21.978;2024-01-27T03:24:35;65442.97;;;2.64;100.00
37132;BME280;23035;50.032;21.978;2024-01-27T03:29:40;65496.88;;;3.17;100.00
37132;BME280;23035;50.032;21.978;2024-01-27T03:34:44;65466.84;;;2.84;100.00
37132;BME280;23035;50.032;21.978;2024-01-27T03:39:49;65457.78;;;2.75;100.00
37132;BME280;23035;50.032;21.978;2024-01-27T03:44:55;65475.47;;;2.95;100.00
37132;BME280;23035;50.032;21.978;2024-01-27T03:49:59;65465.13;;;2.80;100.00
37132;BME280;23035;50.032;21.978;2024-01-27T03:55:04;65441.25;;;2.59;100.00
37132;BME280;23035;50.032;21.978;2024-01-27T04:00:11;65514.38;;;3.32;100.00
37132;BME280;23035;50.032;21.978;2024-01-27T04:05:16;65458.31;;;2.76;100.00
37132;BME280;23035;50.032;21.978;2024-01-27T04:10:21;65492.44;;;3.08;100.00
37132;BME280;23035;50.032;21.978;2024-01-27T04:15:26;65444.13;;;2.67;100.00
37132;BME280;23035;50.032;21.978;2024-01-27T04:20:31;65462.03;;;2.79;100.00
37132;BME280;23035;50.032;21.978;2024-01-27T04:25:36;65479.63;;;2.96;100.00
37132;BME280;23035;50.032;21.978;2024-01-27T04:30:41;65461.50;;;2.79;100.00
37132;BME280;23035;50.032;21.978;2024-01-27T04:35:46;65437.63;;;2.58;100.00
37132;BME280;23035;50.032;21.978;2024-01-27T04:40:50;65454.59;;;2.72;100.00
37132;BME280;23035;50.032;21.978;2024-01-27T04:45:56;65431.56;;;2.48;100.00
37132;BME280;23035;50.032;21.978;2024-01-27T04:51:01;65434.88;;;2.53;100.00
37132;BME280;23035;50.032;21.978;2024-01-27T04:56:05;65449.69;;;2.65;100.00
37132;BME280;23035;50.032;21.978;2024-01-27T05:01:12;65442.97;;;2.64;100.00
37132;BME280;23035;50.032;21.978;2024-01-27T05:06:16;65505.22;;;3.21;100.00
37132;BME280;23035;50.032;21.978;2024-01-27T05:11:26;65485.59;;;3.04;100.00
37132;BME280;23035;50.032;21.978;2024-01-27T05:16:33;65488.25;;;3.07;100.00
37132;BME280;23035;50.032;21.978;2024-01-27T05:21:37;65471.09;;;2.88;100.00
37132;BME280;23035;50.032;21.978;2024-01-27T05:26:41;65456.91;;;2.79;100.00
37132;BME280;23035;50.032;21.978;2024-01-27T05:31:47;65542.00;;;3.56;100.00
37132;BME280;23035;50.032;21.978;2024-01-27T05:36:52;65493.50;;;3.09;100.00
37132;BME280;23035;50.032;21.978;2024-01-27T05:41:57;65506.28;;;3.22;100.00
37132;BME280;23035;50.032;21.978;2024-01-27T05:47:05;65416.34;;;2.38;100.00
37132;BME280;23035;50.032;21.978;2024-01-27T05:52:13;65499.91;;;3.15;100.00
37132;BME280;23035;50.032;21.978;2024-01-27T05:57:27;65482.94;;;3.02;100.00
37132;BME280;23035;50.032;21.978;2024-01-27T06:02:33;65438.94;;;2.52;100.00
37132;BME280;23035;50.032;21.978;2024-01-27T06:07:38;65515.44;;;3.33;100.00
37132;BME280;23035;50.032;21.978;2024-01-27T06:12:43;65472.81;;;2.92;100.00
37132;BME280;23035;50.032;21.978;2024-01-27T06:17:50;65465.13;;;2.80;100.00
37132;BME280;23035;50.032;21.978;2024-01-27T06:22:54;65454.16;;;2.74;100.00
37132;BME280;23035;50.032;21.978;2024-01-27T06:27:59;65383.63;;;2.02;100.00
37132;BME280;23035;50.032;21.978;2024-01-27T06:33:05;65449.34;;;2.70;100.00
37132;BME280;23035;50.032;21.978;2024-01-27T06:38:10;65414.53;;;2.32;100.00
37132;BME280;23035;50.032;21.978;2024-01-27T06:43:14;65409.94;;;2.32;100.00
37132;BME280;23035;50.032;21.978;2024-01-27T06:48:20;65411.22;;;2.26;100.00
37132;BME280;23035;50.032;21.978;2024-01-27T06:53:25;65406.00;;;2.23;100.00
37132;BME280;23035;50.032;21.978;2024-01-27T06:58:29;65429.00;;;2.48;100.00
37132;BME280;23035;50.032;21.978;2024-01-27T07:03:35;65426.34;;;2.45;100.00
37132;BME280;23035;50.032;21.978;2024-01-27T07:08:42;65437.53;;;2.56;100.00
37132;BME280;23035;50.032;21.978;2024-01-27T07:13:47;65457.25;;;2.75;100.00
37132;BME280;23035;50.032;21.978;2024-01-27T07:18:52;65424.66;;;2.41;100.00
37132;BME280;23035;50.032;21.978;2024-01-27T07:23:57;65464.72;;;2.82;100.00
37132;BME280;23035;50.032;21.978;2024-01-27T07:29:03;65452.34;;;2.68;100.00
37132;BME280;23035;50.032;21.978;2024-01-27T07:34:09;65440.72;;;2.59;100.00
37132;BME280;23035;50.032;21.978;2024-01-27T07:39:14;65452.88;;;2.68;100.00
37132;BME280;23035;50.032;21.978;2024-01-27T07:44:18;65418.91;;;2.38;100.00
37132;BME280;23035;50.032;21.978;2024-01-27T07:49:24;65445.00;;;2.63;100.00
37132;BME280;23035;50.032;21.978;2024-01-27T07:54:29;65442.75;;;2.58;100.00
37132;BME280;23035;50.032;21.978;2024-01-27T07:59:34;65445.53;;;2.64;100.00
37132;BME280;23035;50.032;21.978;2024-01-27T08:04:40;65501.06;;;3.19;100.00
37132;BME280;23035;50.032;21.978;2024-01-27T08:09:44;65441.34;;;2.62;100.00
37132;BME280;23035;50.032;21.978;2024-01-27T08:14:49;65411.97;;;2.32;100.00
37132;BME280;23035;50.032;21.978;2024-01-27T08:19:55;65502.56;;;3.18;100.00
37132;BME280;23035;50.032;21.978;2024-01-27T08:24:59;65455.66;;;2.73;100.00
37132;BME280;23035;50.032;21.978;2024-01-27T08:30:04;65458.94;;;2.79;100.00
37132;BME280;23035;50.032;21.978;2024-01-27T08:35:11;65460.44;;;2.78;100.00
37132;BME280;23035;50.032;21.978;2024-01-27T08:40:16;65459.38;;;2.77;100.00
37132;BME280;23035;50.032;21.978;2024-01-27T08:45:21;65456.19;;;2.74;100.00
37132;BME280;23035;50.032;21.978;2024-01-27T08:50:27;65461.72;;;2.84;100.00
37132;BME280;23035;50.032;21.978;2024-01-27T08:55:32;65468.44;;;2.85;100.00
37132;BME280;23035;50.032;21.978;2024-01-27T09:00:36;65488.06;;;3.02;100.00
37132;BME280;23035;50.032;21.978;2024-01-27T09:05:43;65409.22;;;2.26;100.00
37132;BME280;23035;50.032;21.978;2024-01-27T09:10:48;65372.66;;;1.96;100.00
37132;BME280;23035;50.032;21.978;2024-01-27T09:15:53;65338.38;;;1.59;100.00
37132;BME280;23035;50.032;21.978;2024-01-27T09:20:59;65345.41;;;1.68;100.00
37132;BME280;23035;50.032;21.978;2024-01-27T09:26:05;65372.66;;;1.96;100.00
37132;BME280;23035;50.032;21.978;2024-01-27T09:31:10;65304.94;;;1.29;100.00
37132;BME280;23035;50.032;21.978;2024-01-27T09:36:16;65353.50;;;1.78;100.00
37132;BME280;23035;50.032;21.978;2024-01-27T09:41:20;65355.00;;;1.77;100.00
37132;BME280;23035;50.032;21.978;2024-01-27T09:46:29;65386.28;;;2.05;100.00
37132;BME280;23035;50.032;21.978;2024-01-27T09:51:35;65378.50;;;2.02;100.00
37132;BME280;23035;50.032;21.978;2024-01-27T09:56:39;65364.47;;;1.84;100.00
37132;BME280;23035;50.032;21.978;2024-01-27T10:01:44;65321.97;;;1.46;100.00
37132;BME280;23035;50.032;21.978;2024-01-27T10:06:50;65336.78;;;1.57;100.00
37132;BME280;23035;50.032;21.978;2024-01-27T10:11:55;65335.59;;;1.54;100.00
37132;BME280;23035;50.032;21.978;2024-01-27T10:17:00;65303.78;;;1.26;100.00
37132;BME280;23035;50.032;21.978;2024-01-27T10:22:05;65277.28;;;1.03;100.00
37132;BME280;23035;50.032;21.978;2024-01-27T10:27:10;65271.41;;;0.97;100.00
37132;BME280;23035;50.032;21.978;2024-01-27T10:32:14;65297.94;;;1.20;100.00
37132;BME280;23035;50.032;21.978;2024-01-27T10:37:25;65289.94;;;1.12;100.00
37132;BME280;23035;50.032;21.978;2024-01-27T10:42:29;65254.41;;;0.81;100.00
37132;BME280;23035;50.032;21.978;2024-01-27T10:47:34;65274.50;;;0.98;100.00
37132;BME280;23035;50.032;21.978;2024-01-27T10:52:42;65269.72;;;0.93;100.00
37132;BME280;23035;50.032;21.978;2024-01-27T10:57:49;65249.50;;;0.74;100.00
37132;BME280;23035;50.032;21.978;2024-01-27T11:02:58;65240.47;;;0.65;100.00
37132;BME280;23035;50.032;21.978;2024-01-27T11:08:11;65217.06;;;0.43;100.00
37132;BME280;23035;50.032;21.978;2024-01-27T11:13:20;65241.22;;;0.71;100.00
37132;BME280;23035;50.032;21.978;2024-01-27T11:18:27;65203.34;;;0.32;100.00
37132;BME280;23035;50.032;21.978;2024-01-27T11:23:35;65221.97;;;0.50;100.00
37132;BME280;23035;50.032;21.978;2024-01-27T11:28:39;65235.78;;;0.63;100.00
37132;BME280;23035;50.032;21.978;2024-01-27T11:34:09;65249.19;;;0.78;100.00
37132;BME280;23035;50.032;21.978;2024-01-27T11:45:42;65203.78;;;0.30;100.00
37132;BME280;23035;50.032;21.978;2024-01-27T11:50:46;65225.56;;;0.51;100.00
37132;BME280;23035;50.032;21.978;2024-01-27T11:56:00;65225.16;;;0.53;100.00
37132;BME280;23035;50.032;21.978;2024-01-27T12:01:06;65217.59;;;0.43;100.00
37132;BME280;23035;50.032;21.978;2024-01-27T12:06:15;65221.53;;;0.52;100.00
37132;BME280;23035;50.032;21.978;2024-01-27T12:11:20;65254.28;;;0.78;100.00
37132;BME280;23035;50.032;21.978;2024-01-27T12:16:31;65204.84;;;0.31;100.00
37132;BME280;23035;50.032;21.978;2024-01-27T12:21:47;65251.09;;;0.75;100.00
37132;BME280;23035;50.032;21.978;2024-01-27T12:26:55;65260.25;;;0.86;100.00
37132;BME280;23035;50.032;21.978;2024-01-27T12:32:01;65258.22;;;0.87;100.00
37132;BME280;23035;50.032;21.978;2024-01-27T12:37:10;65242.81;;;0.72;100.00
37132;BME280;23035;50.032;21.978;2024-01-27T12:42:15;65227.47;;;0.48;100.00
37132;BME280;23035;50.032;21.978;2024-01-27T12:47:21;65259.72;;;0.86;100.00
37132;BME280;23035;50.032;21.978;2024-01-27T12:52:34;65289.41;;;1.12;100.00
37132;BME280;23035;50.032;21.978;2024-01-27T12:57:38;65218.22;;;0.46;100.00
37132;BME280;23035;50.032;21.978;2024-01-27T13:02:45;65297.59;;;1.25;100.00
37132;BME280;23035;50.032;21.978;2024-01-27T13:07:49;65266.53;;;0.90;100.00
37132;BME280;23035;50.032;21.978;2024-01-27T13:12:54;65236.75;;;0.62;100.00
37132;BME280;23035;50.032;21.978;2024-01-27T13:18:00;65294.09;;;1.14;100.00
37132;BME280;23035;50.032;21.978;2024-01-27T13:23:05;65287.47;;;1.15;100.00
37132;BME280;23035;50.032;21.978;2024-01-27T13:28:09;65307.06;;;1.31;100.00
37132;BME280;23035;50.032;21.978;2024-01-27T13:33:17;65287.91;;;1.13;100.00
37132;BME280;23035;50.032;21.978;2024-01-27T13:38:21;65300.06;;;1.22;100.00
37132;BME280;23035;50.032;21.978;2024-01-27T13:43:27;65301.22;;;1.26;100.00
37132;BME280;23035;50.032;21.978;2024-01-27T13:48:33;65293.66;;;1.16;100.00
37132;BME280;23035;50.032;21.978;2024-01-27T13:53:38;65290.69;;;1.18;100.00
37132;BME280;23035;50.032;21.978;2024-01-27T13:58:51;65339.63;;;1.65;100.00
37132;BME280;23035;50.032;21.978;2024-01-27T14:03:57;65317.28;;;1.43;100.00
37132;BME280;23035;50.032;21.978;2024-01-27T14:09:02;65297.69;;;1.27;100.00
37132;BME280;23035;50.032;21.978;2024-01-27T14:14:07;65283.56;;;1.06;100.00
37132;BME280;23035;50.032;21.978;2024-01-27T14:19:13;65294.72;;;1.17;100.00
37132;BME280;23035;50.032;21.978;2024-01-27T14:24:18;65322.63;;;1.49;100.00
37132;BME280;23035;50.032;21.978;2024-01-27T14:29:23;65305.47;;;1.30;100.00
37132;BME280;23035;50.032;21.978;2024-01-27T14:34:29;65340.50;;;1.61;100.00
37132;BME280;23035;50.032;21.978;2024-01-27T14:39:33;65367.03;;;1.84;100.00
37132;BME280;23035;50.032;21.978;2024-01-27T14:44:38;65346.47;;;1.69;100.00
37132;BME280;23035;50.032;21.978;2024-01-27T14:49:44;65319.94;;;1.46;100.00
37132;BME280;23035;50.032;21.978;2024-01-27T14:54:49;65350.72;;;1.73;100.00
37132;BME280;23035;50.032;21.978;2024-01-27T14:59:54;65324.53;;;1.46;100.00
37132;BME280;23035;50.032;21.978;2024-01-27T15:05:00;65354.56;;;1.79;100.00
37132;BME280;23035;50.032;21.978;2024-01-27T15:10:05;65349.22;;;1.74;100.00
37132;BME280;23035;50.032;21.978;2024-01-27T15:15:13;65362.66;;;1.89;100.00
37132;BME280;23035;50.032;21.978;2024-01-27T15:20:47;65383.19;;;2.04;100.00
37132;BME280;23035;50.032;21.978;2024-01-27T15:25:52;65365.09;;;1.87;100.00
37132;BME280;23035;50.032;21.978;2024-01-27T15:31:02;65354.44;;;1.77;100.00
37132;BME280;23035;50.032;21.978;2024-01-27T15:36:09;65396.09;;;2.19;100.00
37132;BME280;23035;50.032;21.978;2024-01-27T15:41:15;65392.16;;;2.10;100.00
37132;BME280;23035;50.032;21.978;2024-01-27T15:46:22;65332.19;;;1.58;100.00
37132;BME280;23035;50.032;21.978;2024-01-27T15:51:27;65349.31;;;1.77;100.00
37132;BME280;23035;50.032;21.978;2024-01-27T15:56:32;65369.78;;;1.89;100.00
37132;BME280;23035;50.032;21.978;2024-01-27T16:01:36;65370.75;;;1.87;100.00
37132;BME280;23035;50.032;21.978;2024-01-27T16:06:42;65398.13;;;2.18;100.00
37132;BME280;23035;50.032;21.978;2024-01-27T16:11:50;65368.81;;;1.90;100.00
37132;BME280;23035;50.032;21.978;2024-01-27T16:16:57;65353.91;;;1.76;100.00
37132;BME280;23035;50.032;21.978;2024-01-27T16:22:03;65345.81;;;1.66;100.00
37132;BME280;23035;50.032;21.978;2024-01-27T16:27:08;65394.91;;;2.15;100.00
37132;BME280;23035;50.032;21.978;2024-01-27T16:32:19;65358.09;;;1.78;100.00
37132;BME280;23035;50.032;21.978;2024-01-27T16:37:27;65409.63;;;2.24;100.00
37132;BME280;23035;50.032;21.978;2024-01-27T16:42:32;65366.16;;;1.88;100.00
37132;BME280;23035;50.032;21.978;2024-01-27T16:47:38;65295.81;;;1.18;100.00
37132;BME280;23035;50.032;21.978;2024-01-27T16:52:44;65292.06;;;1.14;100.00
37132;BME280;23035;50.032;21.978;2024-01-27T16:57:49;65294.72;;;1.17;100.00
37132;BME280;23035;50.032;21.978;2024-01-27T17:02:54;65318.69;;;1.40;100.00
37132;BME280;23035;50.032;21.978;2024-01-27T17:08:03;65328.38;;;1.52;100.00
37132;BME280;23035;50.032;21.978;2024-01-27T17:13:12;65216.00;;;0.42;100.00
37132;BME280;23035;50.032;21.978;2024-01-27T17:18:19;65243.75;;;0.71;100.00
37132;BME280;23035;50.032;21.978;2024-01-27T17:23:26;65299.00;;;1.21;100.00
37132;BME280;23035;50.032;21.978;2024-01-27T17:28:35;65283.97;;;1.04;100.00
37132;BME280;23035;50.032;21.978;2024-01-27T17:33:45;65236.22;;;0.61;100.00
37132;BME280;23035;50.032;21.978;2024-01-27T17:38:57;65247.38;;;0.72;100.00
37132;BME280;23035;50.032;21.978;2024-01-27T17:44:02;65250.66;;;0.77;100.00
37132;BME280;23035;50.032;21.978;2024-01-27T17:49:07;65236.22;;;0.61;100.00
37132;BME280;23035;50.032;21.978;2024-01-27T17:54:14;65239.81;;;0.74;100.00
37132;BME280;23035;50.032;21.978;2024-01-27T17:59:18;65273.97;;;0.97;100.00
37132;BME280;23035;50.032;21.978;2024-01-27T18:04:24;65312.28;;;1.34;100.00
37132;BME280;23035;50.032;21.978;2024-01-27T18:09:29;65333.06;;;1.54;100.00
37132;BME280;23035;50.032;21.978;2024-01-27T18:14:33;65304.41;;;1.29;100.00
37132;BME280;23035;50.032;21.978;2024-01-27T18:19:38;65396.09;;;2.19;100.00
37132;BME280;23035;50.032;21.978;2024-01-27T18:24:44;65376.16;;;1.95;100.00
37132;BME280;23035;50.032;21.978;2024-01-27T18:29:48;65307.72;;;1.34;100.00
37132;BME280;23035;50.032;21.978;2024-01-27T18:34:52;65295.38;;;1.20;100.00
37132;BME280;23035;50.032;21.978;2024-01-27T18:39:57;65392.34;;;2.15;100.00
37132;BME280;23035;50.032;21.978;2024-01-27T18:45:04;65393.41;;;2.16;100.00
37132;BME280;23035;50.032;21.978;2024-01-27T18:50:09;65367.22;;;1.89;100.00
37132;BME280;23035;50.032;21.978;2024-01-27T18:55:15;65359.03;;;1.88;100.00
37132;BME280;23035;50.032;21.978;2024-01-27T19:00:22;65232.06;;;0.60;100.00
37132;BME280;23035;50.032;21.978;2024-01-27T19:05:27;65245.47;;;0.75;100.00
37132;BME280;23035;50.032;21.978;2024-01-27T19:10:34;65251.09;;;0.75;100.00
37132;BME280;23035;50.032;21.978;2024-01-27T19:15:38;65247.47;;;0.74;100.00
37132;BME280;23035;50.032;21.978;2024-01-27T19:20:43;65253.75;;;0.78;100.00
37132;BME280;23035;50.032;21.978;2024-01-27T19:25:49;65258.13;;;0.84;100.00
37132;BME280;23035;50.032;21.978;2024-01-27T19:30:53;65254.28;;;0.78;100.00
37132;BME280;23035;50.032;21.978;2024-01-27T19:35:58;65247.38;;;0.72;100.00
37132;BME280;23035;50.032;21.978;2024-01-27T19:41:04;65241.75;;;0.71;100.00
37132;BME280;23035;50.032;21.978;2024-01-27T19:46:20;65263.44;;;0.90;100.00
37132;BME280;23035;50.032;21.978;2024-01-27T19:51:24;65296.00;;;1.23;100.00
37132;BME280;23035;50.032;21.978;2024-01-27T19:56:31;65292.69;;;1.18;100.00
37132;BME280;23035;50.032;21.978;2024-01-27T20:01:35;65366.16;;;1.88;100.00
37132;BME280;23035;50.032;21.978;2024-01-27T20:06:40;65348.91;;;1.66;100.00
37132;BME280;23035;50.032;21.978;2024-01-27T20:11:46;65293.25;;;1.18;100.00
37132;BME280;23035;50.032;21.978;2024-01-27T20:16:52;65256.53;;;0.83;100.00
37132;BME280;23035;50.032;21.978;2024-01-27T20:21:56;65303.88;;;1.28;100.00
37132;BME280;23035;50.032;21.978;2024-01-27T20:27:03;65295.25;;;1.18;100.00
37132;BME280;23035;50.032;21.978;2024-01-27T20:32:08;65322.41;;;1.43;100.00
37132;BME280;23035;50.032;21.978;2024-01-27T20:37:12;65358.63;;;1.78;100.00
37132;BME280;23035;50.032;21.978;2024-01-27T20:42:18;65320.47;;;1.47;100.00
37132;BME280;23035;50.032;21.978;2024-01-27T20:47:23;65310.47;;;1.39;100.00
37132;BME280;23035;50.032;21.978;2024-01-27T20:52:28;65318.25;;;1.42;100.00
37132;BME280;23035;50.032;21.978;2024-01-27T20:57:33;65338.56;;;1.64;100.00
37132;BME280;23035;50.032;21.978;2024-01-27T21:02:38;65328.38;;;1.52;100.00
37132;BME280;23035;50.032;21.978;2024-01-27T21:07:42;65360.31;;;1.82;100.00
37132;BME280;23035;50.032;21.978;2024-01-27T21:12:48;65277.38;;;1.05;100.00
37132;BME280;23035;50.032;21.978;2024-01-27T21:17:54;65307.50;;;1.29;100.00
37132;BME280;23035;50.032;21.978;2024-01-27T21:22:59;65308.78;;;1.35;100.00
37132;BME280;23035;50.032;21.978;2024-01-27T21:28:06;65292.81;;;1.20;100.00
37132;BME280;23035;50.032;21.978;2024-01-27T21:33:10;65320.47;;;1.47;100.00
37132;BME280;23035;50.032;21.978;2024-01-27T21:38:14;65315.69;;;1.42;100.00
37132;BME280;23035;50.032;21.978;2024-01-27T21:43:20;65268.31;;;0.97;100.00
37132;BME280;23035;50.032;21.978;2024-01-27T21:48:24;65261.63;;;0.83;100.00
37132;BME280;23035;50.032;21.978;2024-01-27T21:53:29;65298.56;;;1.23;100.00
37132;BME280;23035;50.032;21.978;2024-01-27T21:58:35;65284.63;;;1.07;100.00
37132;BME280;23035;50.032;21.978;2024-01-27T22:03:39;65350.28;;;1.75;100.00
37132;BME280;23035;50.032;21.978;2024-01-27T22:08:43;65349.03;;;1.69;100.00
37132;BME280;23035;50.032;21.978;2024-01-27T22:13:49;65313.34;;;1.35;100.00
37132;BME280;23035;50.032;21.978;2024-01-27T22:18:54;65336.44;;;1.62;100.00
37132;BME280;23035;50.032;21.978;2024-01-27T22:23:58;65309.00;;;1.28;100.00
37132;BME280;23035;50.032;21.978;2024-01-27T22:29:04;65271.66;;;0.90;100.00
37132;BME280;23035;50.032;21.978;2024-01-27T22:34:08;65223.88;;;0.47;100.00
37132;BME280;23035;50.032;21.978;2024-01-27T22:39:13;65292.59;;;1.15;100.00
37132;BME280;23035;50.032;21.978;2024-01-27T22:44:19;65283.22;;;1.11;100.00
37132;BME280;23035;50.032;21.978;2024-01-27T22:49:23;65309.31;;;1.36;100.00
37132;BME280;23035;50.032;21.978;2024-01-27T22:54:28;65313.34;;;1.35;100.00
37132;BME280;23035;50.032;21.978;2024-01-27T22:59:34;65304.31;;;1.26;100.00
37132;BME280;23035;50.032;21.978;2024-01-27T23:04:38;65322.41;;;1.43;100.00
37132;BME280;23035;50.032;21.978;2024-01-27T23:09:45;65333.16;;;1.56;100.00
37132;BME280;23035;50.032;21.978;2024-01-27T23:14:51;65222.38;;;0.48;100.00
37132;BME280;23035;50.032;21.978;2024-01-27T23:19:56;65197.38;;;0.24;100.00
37132;BME280;23035;50.032;21.978;2024-01-27T23:25:01;65188.78;;;0.13;100.00
37132;BME280;23035;50.032;21.978;2024-01-27T23:30:07;65195.38;;;0.24;100.00
37132;BME280;23035;50.032;21.978;2024-01-27T23:35:13;65203.88;;;0.33;100.00
37132;BME280;23035;50.032;21.978;2024-01-27T23:40:17;65275.25;;;1.03;100.00
37132;BME280;23035;50.032;21.978;2024-01-27T23:45:39;65260.25;;;0.86;100.00
37132;BME280;23035;50.032;21.978;2024-01-27T23:50:44;65219.41;;;0.50;100.00
37132;BME280;23035;50.032;21.978;2024-01-27T23:55:49;65214.09;;;0.45;100.00
